Latest Weather Observations for Adelaide (Kent Town)

IDS60901

Issued at 8:51 pm CDT Friday 13 December 2019 (issued every 10 minutes, with the page automatically refreshed every 10 minutes)

About weather observations | Map of Adelaide area stations | Latest observations for Adelaide area | Other Formats
Station Details ID: 023090 Name: KENT TOWN Lat: -34.92 Lon: 138.62 Height: 48.0 m
Data from the previous 72 hours. | See also: Recent months at Adelaide (Kent Town)
Date/Time
CDT
Temp
°C
App
Temp
°C
Dew
Point
°C
Rel
Hum
%
Delta-T
°C
Wind Press
QNH
hPa
Press
MSL
hPa
Rain since
9am
mm
Dir  Spd
km/h
Gust
km/h
Spd
kts
Gust
kts
13/08:30pm 17.8 16.7 10.7 63 3.8 SSW 7 11 4 6 1020.4 1020.2 0.0
13/08:00pm 18.2 17.2 11.0 63 3.9 SW 7 15 4 8 1020.4 1020.2 0.0
13/07:30pm 18.7 16.0 10.3 58 4.5 SW 15 24 8 13 1020.4 1020.2 0.0
13/07:00pm 19.4 16.8 10.7 57 4.7 WSW 15 26 8 14 1020.0 1019.9 0.0
13/06:30pm 19.5 16.6 10.9 57 4.7 WSW 17 26 9 14 1019.7 1019.6 0.0
13/06:00pm 19.8 16.1 10.3 54 5.1 WSW 20 30 11 16 1019.8 1019.7 0.0
13/05:30pm 19.8 16.1 10.1 53 5.2 WSW 20 32 11 17 1020.0 1019.9 0.0
13/05:00pm 19.6 15.7 9.6 52 5.3 WSW 20 30 11 16 1020.2 1020.0 0.0
13/04:30pm 20.8 17.5 9.6 48 6.0 WSW 17 30 9 16 1020.3 1020.1 0.0
13/04:00pm 21.0 17.5 8.9 46 6.4 WSW 17 30 9 16 1020.6 1020.4 0.0
13/03:30pm 20.7 18.2 13.6 64 4.1 WSW 19 33 10 18 1021.0 1020.8 0.0
13/03:00pm 20.7 17.3 9.0 47 6.2 WSW 17 30 9 16 1021.2 1021.0 0.0
13/02:30pm 19.9 16.4 8.6 48 5.9 WSW 17 22 9 12 1021.3 1021.1 0.0
13/02:00pm 20.3 17.5 8.6 47 6.1 SW 13 19 7 10 1021.5 1021.3 0.0
13/01:30pm 19.6 16.0 8.4 48 5.8 WSW 17 26 9 14 1021.7 1021.5 0.0
13/01:00pm 21.2 18.3 8.2 43 6.8 WSW 13 20 7 11 1021.9 1021.7 0.0
13/12:30pm 21.0 17.6 7.6 42 6.9 WSW 15 24 8 13 1022.2 1022.0 0.0
13/12:00pm 20.6 17.6 7.6 43 6.7 WSW 13 22 7 12 1022.3 1022.1 0.0
13/11:30am 19.8 16.0 7.7 45 6.2 W 17 28 9 15 1022.5 1022.3 0.0
13/11:00am 18.4 15.4 7.5 49 5.5 SW 13 22 7 12 1022.5 1022.3 0.0
13/10:30am 19.4 16.6 7.1 44 6.2 WSW 11 20 6 11 1022.7 1022.5 0.0
13/10:00am 17.9 16.0 6.6 47 5.6 S 6 15 3 8 1023.0 1022.8 0.0
13/09:30am 17.9 15.3 6.3 46 5.7 WSW 9 17 5 9 1023.3 1023.1 0.0
13/09:00am 16.5 14.4 6.7 52 4.8 SSW 7 15 4 8 1023.3 1023.1 0.0
13/08:30am 15.6 13.2 6.8 56 4.3 SSW 9 15 5 8 1023.5 1023.3 0.0
13/08:00am 15.1 12.2 6.4 56 4.2 SSW 11 17 6 9 1023.1 1022.9 0.0
13/07:30am 14.9 12.4 6.7 58 4.0 SSW 9 17 5 9 1022.9 1022.7 0.0
13/07:00am 14.7 12.8 6.9 59 3.8 SSW 6 19 3 10 1022.7 1022.5 0.0
13/06:30am 14.2 12.3 6.5 60 3.7 S 6 11 3 6 1022.3 1022.1 0.0
13/06:00am 13.7 12.3 7.1 64 3.2 S 4 9 2 5 1022.4 1022.2 0.0
13/05:30am 14.0 11.4 6.3 60 3.7 SSE 9 15 5 8 1022.2 1022.0 0.0
13/05:00am 14.1 12.1 6.9 62 3.5 S 7 13 4 7 1022.4 1022.2 0.0
13/04:30am 13.8 11.7 6.8 62 3.4 S 7 15 4 8 1022.2 1022.0 0.0
13/04:00am 13.2 11.8 7.2 67 2.9 SSW 4 13 2 7 1022.4 1022.2 0.0
13/03:30am 13.5 11.6 6.9 64 3.2 SSE 6 11 3 6 1022.4 1022.2 0.0
13/03:00am 13.7 11.3 6.9 63 3.3 S 9 15 5 8 1022.6 1022.4 0.0
13/02:30am 13.7 11.7 7.1 64 3.2 SSW 7 13 4 7 1022.8 1022.6 0.0
13/02:00am 13.7 11.7 7.3 65 3.1 SSW 7 13 4 7 1022.9 1022.7 0.0
13/01:30am 13.8 11.1 7.2 64 3.2 S 11 17 6 9 1023.0 1022.8 0.0
13/01:00am 13.7 11.7 7.3 65 3.1 S 7 11 4 6 1023.5 1023.3 0.0
13/12:30am 13.7 11.7 7.3 65 3.1 S 7 15 4 8 1023.8 1023.6 0.0
13/12:00am 13.8 11.9 7.5 66 3.1 SSW 7 15 4 8 1024.1 1023.9 0.0
 
Date/Time
CDT
Temp
°C
App
Temp
°C
Dew
Point
°C
Rel
Hum
%
Delta-T
°C
Wind Press
QNH
hPa
Press
MSL
hPa
Rain since
9am
mm
Dir  Spd
km/h
Gust
km/h
Spd
kts
Gust
kts
12/11:30pm 13.9 12.1 7.3 64 3.2 SSW 6 13 3 7 1024.2 1024.0 0.0
12/11:00pm 14.1 11.3 7.1 62 3.4 SSW 11 20 6 11 1024.2 1024.0 0.0
12/10:30pm 14.2 11.5 7.2 63 3.4 S 11 19 6 10 1024.1 1023.9 0.0
12/10:00pm 14.5 11.4 7.1 61 3.6 S 13 20 7 11 1024.0 1023.8 0.0
12/09:30pm 14.7 12.0 7.4 61 3.6 S 11 20 6 11 1023.9 1023.7 0.0
12/09:00pm 15.1 12.3 6.9 58 4.0 SSE 11 22 6 12 1023.5 1023.3 0.0
12/08:30pm 15.9 12.8 7.2 56 4.3 SSE 13 22 7 12 1023.6 1023.4 0.0
12/08:00pm 17.1 14.5 7.8 54 4.7 SSE 11 20 6 11 1022.9 1022.7 0.0
12/07:30pm 18.9 16.2 7.2 46 5.9 SSW 11 20 6 11 1022.6 1022.4 0.0
12/07:00pm 19.6 16.5 7.2 44 6.3 S 13 22 7 12 1022.1 1021.9 0.0
12/06:30pm 20.7 17.5 6.9 40 7.0 S 13 22 7 12 1021.8 1021.6 0.0
12/06:00pm 21.8 18.5 6.4 36 7.8 S 13 20 7 11 1021.5 1021.3 0.0
12/05:30pm 22.1 18.3 6.0 35 8.1 SW 15 28 8 15 1021.6 1021.4 0.0
12/05:00pm 22.2 18.3 7.3 38 7.7 S 17 35 9 19 1021.3 1021.1 0.0
12/04:30pm 23.6 19.5 8.6 38 8.0 W 20 35 11 19 1021.3 1021.1 0.0
12/04:00pm 23.0 18.8 8.2 38 7.8 WSW 20 33 11 18 1021.5 1021.3 0.0
12/03:30pm 24.0 21.5 8.2 36 8.4 SW 11 22 6 12 1021.4 1021.2 0.0
12/03:00pm 23.6 20.4 7.0 34 8.6 SW 13 24 7 13 1021.5 1021.3 0.0
12/02:30pm 22.3 19.2 7.2 37 7.8 SSE 13 24 7 13 1021.6 1021.4 0.0
12/02:00pm 22.4 19.3 7.3 37 7.8 SSW 13 24 7 13 1021.6 1021.4 0.0
12/01:30pm 23.1 20.1 7.6 37 8.1 S 13 22 7 12 1021.7 1021.5 0.0
12/01:00pm 22.0 19.0 7.8 40 7.4 S 13 24 7 13 1022.0 1021.8 0.0
12/12:30pm 21.4 18.1 7.9 41 7.0 S 15 24 8 13 1022.2 1022.0 0.0
12/12:00pm 22.0 19.5 8.3 41 7.2 SSW 11 19 6 10 1022.3 1022.1 0.0
12/11:30am 21.9 19.8 8.4 42 7.1 SSE 9 19 5 10 1022.4 1022.2 0.0
12/11:00am 20.3 17.7 7.9 44 6.4 SW 11 19 6 10 1022.6 1022.4 0.0
12/10:30am 20.4 17.9 8.0 44 6.4 SSW 11 20 6 11 1022.8 1022.6 0.0
12/10:00am 19.7 16.8 8.1 47 6.0 SSE 13 24 7 13 1023.0 1022.8 0.0
12/09:30am 18.8 16.4 8.6 51 5.3 SSW 11 19 6 10 1023.0 1022.8 0.0
12/09:00am 18.1 15.2 8.1 52 5.1 SSE 13 26 7 14 1022.7 1022.5 0.0
12/08:30am 17.5 14.6 8.3 54 4.7 S 13 24 7 13 1022.9 1022.7 0.0
12/08:00am 17.0 14.3 8.8 58 4.2 S 13 24 7 13 1022.3 1022.1 0.0
12/07:30am 17.3 15.6 9.7 61 4.0 S 9 15 5 8 1022.0 1021.8 0.0
12/07:00am 16.3 15.5 9.6 64 3.5 SSW 4 9 2 5 1021.8 1021.6 0.0
12/06:30am 16.0 15.1 9.2 64 3.5 SW 4 9 2 5 1021.8 1021.6 0.0
12/06:00am 15.8 13.9 9.0 64 3.5 S 9 19 5 10 1021.7 1021.5 0.0
12/05:30am 15.6 13.7 9.2 65 3.3 SSE 9 24 5 13 1021.2 1021.0 0.0
12/05:00am 15.5 13.3 9.5 67 3.1 S 11 20 6 11 1021.0 1020.8 0.0
12/04:30am 15.6 13.4 9.4 66 3.2 SSE 11 17 6 9 1020.7 1020.5 0.0
12/04:00am 15.5 12.7 9.9 69 2.9 S 15 26 8 14 1020.8 1020.6 0.0
12/03:30am 15.5 13.1 10.2 70 2.8 S 13 22 7 12 1020.9 1020.7 0.0
12/03:00am 15.5 13.1 10.2 70 2.8 S 13 24 7 13 1020.9 1020.7 0.0
12/02:30am 15.3 13.2 9.7 69 2.9 S 11 19 6 10 1021.2 1021.0 0.0
12/02:00am 15.3 13.9 9.7 69 2.9 S 7 15 4 8 1021.4 1021.2 0.0
12/01:30am 15.3 13.6 9.7 69 2.9 SSW 9 20 5 11 1021.5 1021.3 0.0
12/01:00am 15.2 13.4 9.6 69 2.9 SW 9 19 5 10 1021.8 1021.6 0.0
12/12:30am 15.0 13.1 8.9 67 3.1 S 9 19 5 10 1021.8 1021.6 0.0
12/12:00am 14.9 12.5 8.8 67 3.1 S 11 22 6 12 1021.9 1021.7 0.0
 
Date/Time
CDT
Temp
°C
App
Temp
°C
Dew
Point
°C
Rel
Hum
%
Delta-T
°C
Wind Press
QNH
hPa
Press
MSL
hPa
Rain since
9am
mm
Dir  Spd
km/h
Gust
km/h
Spd
kts
Gust
kts
11/11:30pm 14.8 12.1 8.9 68 3.0 S 13 22 7 12 1021.9 1021.7 0.0
11/11:00pm 14.7 13.1 8.8 68 3.0 SSW 7 17 4 9 1021.7 1021.5 0.0
11/10:30pm 14.9 13.3 8.8 67 3.1 WSW 7 13 4 7 1021.9 1021.7 0.0
11/10:00pm 15.5 13.9 7.9 60 3.8 SW 6 11 3 6 1021.2 1021.0 0.0
11/09:30pm 16.1 13.9 7.7 57 4.2 S 9 15 5 8 1020.8 1020.6 0.0
11/09:00pm 17.1 15.5 7.8 54 4.7 SW 6 11 3 6 1020.6 1020.4 0.0
11/08:30pm 18.0 16.4 7.8 51 5.2 SSW 6 13 3 7 1020.3 1020.1 0.0
11/08:00pm 19.0 16.0 7.6 47 5.8 SSW 13 20 7 11 1020.2 1020.0 0.0
11/07:30pm 21.0 18.6 7.1 40 7.1 SSW 9 19 5 10 1019.7 1019.6 0.0
11/07:00pm 21.9 19.0 6.6 37 7.8 SW 11 19 6 10 1019.1 1019.0 0.0
11/06:30pm 22.3 19.2 7.2 37 7.8 S 13 24 7 13 1018.9 1018.8 0.0
11/06:00pm 23.3 20.7 7.6 36 8.2 S 11 20 6 11 1018.6 1018.5 0.0
11/05:30pm 23.1 19.6 7.3 36 8.2 S 15 24 8 13 1018.5 1018.4 0.0
11/05:00pm 24.1 20.4 7.8 35 8.6 SSW 17 24 9 13 1018.5 1018.4 0.0
11/04:30pm 25.3 22.7 7.8 32 9.3 S 11 20 6 11 1018.6 1018.5 0.0
11/04:00pm 25.5 22.4 7.3 31 9.6 SSE 13 30 7 16 1018.7 1018.6 0.0
11/03:30pm 25.8 22.6 6.9 30 9.9 SSW 13 24 7 13 1018.8 1018.7 0.0
11/03:00pm 25.9 23.5 7.1 30 9.9 S 9 19 5 10 1018.8 1018.7 0.0
11/02:30pm 25.3 22.4 6.4 29 9.8 SSE 11 24 6 13 1018.8 1018.7 0.0
11/02:00pm 25.1 21.9 6.9 31 9.5 SSE 13 20 7 11 1019.0 1018.9 0.0
11/01:30pm 25.3 22.4 6.7 30 9.7 SSE 11 20 6 11 1019.1 1019.0 0.0
11/01:00pm 25.3 22.8 6.7 30 9.7 S 9 19 5 10 1019.4 1019.3 0.0
11/12:30pm 23.9 22.0 6.7 33 8.9 ENE 6 15 3 8 1019.3 1019.2 0.0
11/12:00pm 23.5 21.7 7.1 35 8.5 SW 6 13 3 7 1019.5 1019.4 0.0
11/11:30am 22.8 20.5 7.4 37 8.0 WSW 9 13 5 7 1019.7 1019.6 0.0
11/11:00am 21.2 19.3 6.9 39 7.3 NE 6 11 3 6 1019.7 1019.6 0.0
11/10:30am 21.7 20.4 7.6 40 7.3 SW 4 9 2 5 1019.9 1019.8 0.0
11/10:00am 20.0 18.6 7.2 43 6.5 N 4 7 2 4 1020.2 1020.0 0.0
11/09:30am 19.4 17.7 7.7 46 6.0 S 6 11 3 6 1020.3 1020.1 0.0
11/09:00am 17.8 15.7 6.7 48 5.5 E 7 13 4 7 1020.4 1020.2 0.0
11/08:30am 17.2 14.5 7.4 52 4.9 SE 11 15 6 8 1020.3 1020.1 0.0
11/08:00am 17.0 15.8 8.1 55 4.5 ENE 4 11 2 6 1020.2 1020.0 0.0
11/07:30am 15.9 14.8 8.6 62 3.7 WNW 4 9 2 5 1020.0 1019.9 0.0
11/07:00am 13.9 13.3 9.0 72 2.5 W 2 7 1 4 1019.5 1019.4 0.0
11/06:30am 12.7 12.4 8.7 76 2.0 CALM 0 0 0 0 1019.2 1019.1 0.0
11/06:00am 12.7 12.4 8.5 75 2.1 CALM 0 0 0 0 1019.1 1019.0 0.0
11/05:30am 13.3 12.9 8.3 72 2.5 CALM 0 0 0 0 1018.8 1018.7 0.0
11/05:00am 13.6 13.2 8.2 70 2.7 CALM 0 0 0 0 1018.8 1018.7 0.0
11/04:30am 13.8 12.6 7.9 67 2.9 SSE 4 9 2 5 1018.8 1018.7 0.0
11/04:00am 14.0 12.1 7.7 66 3.1 SE 7 15 4 8 1018.8 1018.7 0.0
11/03:30am 13.7 12.6 8.3 70 2.7 SE 4 7 2 4 1018.9 1018.8 0.0
11/03:00am 13.8 12.9 7.7 66 3.0 ESE 2 13 1 7 1019.1 1019.0 0.0
11/02:30am 13.8 13.3 7.9 67 2.9 CALM 0 6 0 3 1019.2 1019.1 0.0
11/02:00am 14.3 12.9 7.4 63 3.4 S 4 11 2 6 1019.2 1019.1 0.0
11/01:30am 13.9 13.5 8.1 68 2.9 CALM 0 0 0 0 1019.2 1019.1 0.0
11/01:00am 14.4 13.1 7.7 64 3.3 E 4 7 2 4 1019.4 1019.3 0.0
11/12:30am 14.7 13.0 7.6 62 3.5 SE 6 11 3 6 1019.7 1019.6 0.0
11/12:00am 14.9 13.9 7.4 61 3.7 SE 2 9 1 5 1019.7 1019.6 0.0
 
Date/Time
CDT
Temp
°C
App
Temp
°C
Dew
Point
°C
Rel
Hum
%
Delta-T
°C
Wind Press
QNH
hPa
Press
MSL
hPa
Rain since
9am
mm
Dir  Spd
km/h
Gust
km/h
Spd
kts
Gust
kts
10/11:30pm 15.1 13.4 7.6 61 3.7 S 6 9 3 5 1020.2 1020.0 0.0
10/11:00pm 15.4 12.6 7.1 57 4.1 SSE 11 17 6 9 1020.2 1020.0 0.0
10/10:30pm 15.9 15.0 6.2 52 4.7 CALM 0 0 0 0 1020.3 1020.1 0.0
10/10:00pm 16.2 14.1 6.6 53 4.7 SE 7 11 4 6 1020.0 1019.9 0.0
10/09:30pm 16.5 13.2 6.5 51 4.9 SE 13 22 7 12 1019.8 1019.7 0.0
10/09:00pm 17.0 13.5 5.3 46 5.6 SSE 13 20 7 11 1019.4 1019.3 0.0

Latest Capital City Observations: Canberra | Sydney | Melbourne | Brisbane | Adelaide | Perth | Hobart | Darwin

Other formats

Comma delimited format used in spreadsheet applications
http://www.bom.gov.au/fwo/IDS60901/IDS60901.94675.axf

JavaScript Object Notation format (JSON) in row-major order
http://www.bom.gov.au/fwo/IDS60901/IDS60901.94675.json

Data quality

Most of these data are generated automatically and are frequently updated. Quality checks on data are not normally performed. It is possible for incorrect values to appear. Refer to information at About Latest Weather Observations and please check the disclaimer before using these data.